sensor_id;sensor_type;location;lat;lon;timestamp;P1;durP1;ratioP1;P2;durP2;ratioP2
4365;SDS011;2196;47.422;9.656;2022-07-23T00:01:11;9.73;;;8.93;;
4365;SDS011;2196;47.422;9.656;2022-07-23T00:03:38;9.63;;;8.73;;
4365;SDS011;2196;47.422;9.656;2022-07-23T00:06:05;9.43;;;8.83;;
4365;SDS011;2196;47.422;9.656;2022-07-23T00:08:34;8.70;;;8.10;;
4365;SDS011;2196;47.422;9.656;2022-07-23T00:11:01;9.00;;;8.37;;
4365;SDS011;2196;47.422;9.656;2022-07-23T00:13:28;9.23;;;8.63;;
4365;SDS011;2196;47.422;9.656;2022-07-23T00:15:56;9.70;;;8.90;;
4365;SDS011;2196;47.422;9.656;2022-07-23T00:18:27;9.70;;;8.80;;
4365;SDS011;2196;47.422;9.656;2022-07-23T00:20:54;9.67;;;8.90;;
4365;SDS011;2196;47.422;9.656;2022-07-23T00:23:22;9.70;;;8.77;;
4365;SDS011;2196;47.422;9.656;2022-07-23T00:25:55;9.97;;;8.97;;
4365;SDS011;2196;47.422;9.656;2022-07-23T00:28:24;11.17;;;10.23;;
4365;SDS011;2196;47.422;9.656;2022-07-23T00:30:51;12.47;;;11.17;;
4365;SDS011;2196;47.422;9.656;2022-07-23T00:33:18;11.40;;;10.40;;
4365;SDS011;2196;47.422;9.656;2022-07-23T00:35:45;11.40;;;10.23;;
4365;SDS011;2196;47.422;9.656;2022-07-23T00:38:12;9.93;;;9.13;;
4365;SDS011;2196;47.422;9.656;2022-07-23T00:40:39;12.93;;;11.90;;
4365;SDS011;2196;47.422;9.656;2022-07-23T00:43:08;11.23;;;10.33;;
4365;SDS011;2196;47.422;9.656;2022-07-23T00:45:35;11.47;;;10.37;;
4365;SDS011;2196;47.422;9.656;2022-07-23T00:48:02;12.60;;;11.37;;
4365;SDS011;2196;47.422;9.656;2022-07-23T00:50:29;11.90;;;10.90;;
4365;SDS011;2196;47.422;9.656;2022-07-23T00:52:56;10.97;;;10.07;;
4365;SDS011;2196;47.422;9.656;2022-07-23T00:55:23;11.33;;;10.47;;
4365;SDS011;2196;47.422;9.656;2022-07-23T00:57:50;12.47;;;11.03;;
4365;SDS011;2196;47.422;9.656;2022-07-23T01:00:23;13.10;;;12.03;;
4365;SDS011;2196;47.422;9.656;2022-07-23T01:02:50;13.00;;;11.77;;
4365;SDS011;2196;47.422;9.656;2022-07-23T01:05:17;12.33;;;11.33;;
4365;SDS011;2196;47.422;9.656;2022-07-23T01:07:47;14.33;;;13.13;;
4365;SDS011;2196;47.422;9.656;2022-07-23T01:10:14;14.97;;;13.70;;
4365;SDS011;2196;47.422;9.656;2022-07-23T01:12:57;12.10;;;11.13;;
4365;SDS011;2196;47.422;9.656;2022-07-23T01:15:26;12.93;;;11.93;;
4365;SDS011;2196;47.422;9.656;2022-07-23T01:17:54;12.27;;;11.20;;
4365;SDS011;2196;47.422;9.656;2022-07-23T01:20:21;13.97;;;12.50;;
4365;SDS011;2196;47.422;9.656;2022-07-23T01:22:50;13.00;;;11.90;;
4365;SDS011;2196;47.422;9.656;2022-07-23T01:25:17;13.47;;;12.10;;
4365;SDS011;2196;47.422;9.656;2022-07-23T01:27:45;13.63;;;12.33;;
4365;SDS011;2196;47.422;9.656;2022-07-23T01:30:12;12.43;;;11.33;;
4365;SDS011;2196;47.422;9.656;2022-07-23T01:32:39;13.47;;;12.40;;
4365;SDS011;2196;47.422;9.656;2022-07-23T01:35:07;15.03;;;13.67;;
4365;SDS011;2196;47.422;9.656;2022-07-23T01:37:35;14.37;;;13.13;;
4365;SDS011;2196;47.422;9.656;2022-07-23T01:40:04;14.73;;;13.10;;
4365;SDS011;2196;47.422;9.656;2022-07-23T01:42:33;13.87;;;12.83;;
4365;SDS011;2196;47.422;9.656;2022-07-23T01:45:01;15.33;;;14.03;;
4365;SDS011;2196;47.422;9.656;2022-07-23T01:47:29;13.67;;;12.47;;
4365;SDS011;2196;47.422;9.656;2022-07-23T01:49:56;12.33;;;11.43;;
4365;SDS011;2196;47.422;9.656;2022-07-23T01:52:23;12.93;;;11.73;;
4365;SDS011;2196;47.422;9.656;2022-07-23T01:54:50;14.13;;;13.10;;
4365;SDS011;2196;47.422;9.656;2022-07-23T01:57:18;14.00;;;12.80;;
4365;SDS011;2196;47.422;9.656;2022-07-23T01:59:45;13.83;;;12.33;;
4365;SDS011;2196;47.422;9.656;2022-07-23T02:02:12;13.37;;;12.33;;
4365;SDS011;2196;47.422;9.656;2022-07-23T02:04:39;14.20;;;13.00;;
4365;SDS011;2196;47.422;9.656;2022-07-23T02:07:06;14.07;;;13.00;;
4365;SDS011;2196;47.422;9.656;2022-07-23T02:09:33;13.90;;;12.70;;
4365;SDS011;2196;47.422;9.656;2022-07-23T02:12:00;14.20;;;12.90;;
4365;SDS011;2196;47.422;9.656;2022-07-23T02:14:29;14.13;;;12.70;;
4365;SDS011;2196;47.422;9.656;2022-07-23T02:16:56;13.83;;;12.57;;
4365;SDS011;2196;47.422;9.656;2022-07-23T02:19:23;15.03;;;13.73;;
4365;SDS011;2196;47.422;9.656;2022-07-23T02:21:50;14.93;;;13.63;;
4365;SDS011;2196;47.422;9.656;2022-07-23T02:24:17;13.70;;;12.60;;
4365;SDS011;2196;47.422;9.656;2022-07-23T02:26:44;13.30;;;12.10;;
4365;SDS011;2196;47.422;9.656;2022-07-23T02:29:11;14.40;;;13.13;;
4365;SDS011;2196;47.422;9.656;2022-07-23T02:31:39;13.27;;;12.23;;
4365;SDS011;2196;47.422;9.656;2022-07-23T02:34:06;13.47;;;12.43;;
4365;SDS011;2196;47.422;9.656;2022-07-23T02:36:36;13.17;;;11.93;;
4365;SDS011;2196;47.422;9.656;2022-07-23T02:39:03;11.90;;;11.00;;
4365;SDS011;2196;47.422;9.656;2022-07-23T02:41:30;12.77;;;11.67;;
4365;SDS011;2196;47.422;9.656;2022-07-23T02:43:57;13.53;;;12.40;;
4365;SDS011;2196;47.422;9.656;2022-07-23T02:46:24;12.63;;;11.43;;
4365;SDS011;2196;47.422;9.656;2022-07-23T02:48:52;11.87;;;10.70;;
4365;SDS011;2196;47.422;9.656;2022-07-23T02:51:19;11.57;;;10.53;;
4365;SDS011;2196;47.422;9.656;2022-07-23T02:53:46;11.50;;;10.53;;
4365;SDS011;2196;47.422;9.656;2022-07-23T02:56:13;10.53;;;9.63;;
4365;SDS011;2196;47.422;9.656;2022-07-23T02:58:40;10.40;;;9.50;;
4365;SDS011;2196;47.422;9.656;2022-07-23T03:01:07;10.13;;;9.27;;
4365;SDS011;2196;47.422;9.656;2022-07-23T03:03:34;10.27;;;9.33;;
4365;SDS011;2196;47.422;9.656;2022-07-23T03:06:03;9.63;;;8.93;;
4365;SDS011;2196;47.422;9.656;2022-07-23T03:08:30;9.47;;;8.77;;
4365;SDS011;2196;47.422;9.656;2022-07-23T03:10:57;9.40;;;8.80;;
4365;SDS011;2196;47.422;9.656;2022-07-23T03:13:24;10.60;;;9.70;;
4365;SDS011;2196;47.422;9.656;2022-07-23T03:15:51;9.50;;;8.80;;
4365;SDS011;2196;47.422;9.656;2022-07-23T03:18:17;10.17;;;9.13;;
4365;SDS011;2196;47.422;9.656;2022-07-23T03:20:44;8.83;;;8.20;;
4365;SDS011;2196;47.422;9.656;2022-07-23T03:23:13;9.30;;;8.57;;
4365;SDS011;2196;47.422;9.656;2022-07-23T03:25:40;8.57;;;8.07;;
4365;SDS011;2196;47.422;9.656;2022-07-23T03:28:07;9.70;;;8.90;;
4365;SDS011;2196;47.422;9.656;2022-07-23T03:30:34;8.87;;;8.27;;
4365;SDS011;2196;47.422;9.656;2022-07-23T03:33:00;8.20;;;7.50;;
4365;SDS011;2196;47.422;9.656;2022-07-23T03:35:27;7.23;;;6.80;;
4365;SDS011;2196;47.422;9.656;2022-07-23T03:37:54;7.07;;;6.47;;
4365;SDS011;2196;47.422;9.656;2022-07-23T03:40:23;5.47;;;5.17;;
4365;SDS011;2196;47.422;9.656;2022-07-23T03:42:50;6.20;;;5.90;;
4365;SDS011;2196;47.422;9.656;2022-07-23T03:45:17;6.13;;;5.83;;
4365;SDS011;2196;47.422;9.656;2022-07-23T03:47:44;7.63;;;7.03;;
4365;SDS011;2196;47.422;9.656;2022-07-23T03:50:11;6.43;;;5.83;;
4365;SDS011;2196;47.422;9.656;2022-07-23T03:52:38;6.03;;;5.63;;
4365;SDS011;2196;47.422;9.656;2022-07-23T03:55:05;7.43;;;6.80;;
4365;SDS011;2196;47.422;9.656;2022-07-23T03:57:34;6.53;;;6.13;;
4365;SDS011;2196;47.422;9.656;2022-07-23T04:00:03;6.97;;;6.37;;
4365;SDS011;2196;47.422;9.656;2022-07-23T04:02:31;6.67;;;6.27;;
4365;SDS011;2196;47.422;9.656;2022-07-23T04:04:58;7.70;;;6.97;;
4365;SDS011;2196;47.422;9.656;2022-07-23T04:07:26;7.37;;;6.90;;
4365;SDS011;2196;47.422;9.656;2022-07-23T04:09:53;7.40;;;6.73;;
4365;SDS011;2196;47.422;9.656;2022-07-23T04:12:20;7.43;;;6.97;;
4365;SDS011;2196;47.422;9.656;2022-07-23T04:14:48;7.07;;;6.67;;
4365;SDS011;2196;47.422;9.656;2022-07-23T04:17:15;8.07;;;7.37;;
4365;SDS011;2196;47.422;9.656;2022-07-23T04:19:42;6.67;;;6.27;;
4365;SDS011;2196;47.422;9.656;2022-07-23T04:22:09;6.00;;;5.60;;
4365;SDS011;2196;47.422;9.656;2022-07-23T04:24:37;7.30;;;6.60;;
4365;SDS011;2196;47.422;9.656;2022-07-23T04:27:04;7.17;;;6.47;;
4365;SDS011;2196;47.422;9.656;2022-07-23T04:29:32;6.60;;;6.23;;
4365;SDS011;2196;47.422;9.656;2022-07-23T04:32:00;6.83;;;6.33;;
4365;SDS011;2196;47.422;9.656;2022-07-23T04:34:27;7.17;;;6.60;;
4365;SDS011;2196;47.422;9.656;2022-07-23T04:36:54;6.73;;;6.23;;
4365;SDS011;2196;47.422;9.656;2022-07-23T04:39:21;7.43;;;6.83;;
4365;SDS011;2196;47.422;9.656;2022-07-23T04:41:48;6.87;;;6.13;;
4365;SDS011;2196;47.422;9.656;2022-07-23T04:44:15;7.00;;;6.57;;
4365;SDS011;2196;47.422;9.656;2022-07-23T04:46:42;6.43;;;5.83;;
4365;SDS011;2196;47.422;9.656;2022-07-23T04:49:10;5.93;;;5.53;;
4365;SDS011;2196;47.422;9.656;2022-07-23T04:51:41;6.60;;;6.10;;
4365;SDS011;2196;47.422;9.656;2022-07-23T04:54:08;8.47;;;7.97;;
4365;SDS011;2196;47.422;9.656;2022-07-23T04:56:35;6.80;;;6.40;;
4365;SDS011;2196;47.422;9.656;2022-07-23T04:59:02;7.23;;;6.67;;
4365;SDS011;2196;47.422;9.656;2022-07-23T05:01:29;6.70;;;6.30;;
4365;SDS011;2196;47.422;9.656;2022-07-23T05:03:56;6.27;;;5.87;;
4365;SDS011;2196;47.422;9.656;2022-07-23T05:06:24;6.77;;;6.37;;
4365;SDS011;2196;47.422;9.656;2022-07-23T05:08:51;6.90;;;6.40;;
4365;SDS011;2196;47.422;9.656;2022-07-23T05:11:20;6.83;;;6.33;;
4365;SDS011;2196;47.422;9.656;2022-07-23T05:13:50;6.03;;;5.60;;
4365;SDS011;2196;47.422;9.656;2022-07-23T05:16:17;6.63;;;6.13;;
4365;SDS011;2196;47.422;9.656;2022-07-23T05:18:45;6.87;;;6.47;;
4365;SDS011;2196;47.422;9.656;2022-07-23T05:21:12;6.07;;;5.67;;
4365;SDS011;2196;47.422;9.656;2022-07-23T05:23:41;6.63;;;6.03;;
4365;SDS011;2196;47.422;9.656;2022-07-23T05:26:08;6.67;;;6.30;;
4365;SDS011;2196;47.422;9.656;2022-07-23T05:28:34;6.63;;;6.23;;
4365;SDS011;2196;47.422;9.656;2022-07-23T05:31:01;5.57;;;5.27;;
4365;SDS011;2196;47.422;9.656;2022-07-23T05:33:29;5.20;;;5.00;;
4365;SDS011;2196;47.422;9.656;2022-07-23T05:35:59;6.03;;;5.77;;
4365;SDS011;2196;47.422;9.656;2022-07-23T05:38:27;5.70;;;5.40;;
4365;SDS011;2196;47.422;9.656;2022-07-23T05:40:56;6.60;;;6.00;;
4365;SDS011;2196;47.422;9.656;2022-07-23T05:43:23;6.00;;;5.63;;
4365;SDS011;2196;47.422;9.656;2022-07-23T05:45:50;6.37;;;6.00;;
4365;SDS011;2196;47.422;9.656;2022-07-23T05:48:17;5.63;;;5.40;;
4365;SDS011;2196;47.422;9.656;2022-07-23T05:50:44;5.30;;;5.10;;
4365;SDS011;2196;47.422;9.656;2022-07-23T05:53:11;5.10;;;4.90;;
4365;SDS011;2196;47.422;9.656;2022-07-23T05:55:38;5.47;;;5.23;;
4365;SDS011;2196;47.422;9.656;2022-07-23T05:58:07;7.03;;;6.63;;
4365;SDS011;2196;47.422;9.656;2022-07-23T06:00:34;5.57;;;5.27;;
4365;SDS011;2196;47.422;9.656;2022-07-23T06:03:01;6.67;;;6.27;;
4365;SDS011;2196;47.422;9.656;2022-07-23T06:05:28;5.97;;;5.47;;
4365;SDS011;2196;47.422;9.656;2022-07-23T06:07:55;7.20;;;6.70;;
4365;SDS011;2196;47.422;9.656;2022-07-23T06:10:22;6.10;;;5.80;;
4365;SDS011;2196;47.422;9.656;2022-07-23T06:12:50;5.83;;;5.43;;
4365;SDS011;2196;47.422;9.656;2022-07-23T06:15:18;6.13;;;5.70;;
4365;SDS011;2196;47.422;9.656;2022-07-23T06:17:45;6.03;;;5.67;;
4365;SDS011;2196;47.422;9.656;2022-07-23T06:20:12;5.67;;;5.37;;
4365;SDS011;2196;47.422;9.656;2022-07-23T06:22:39;5.63;;;5.33;;
4365;SDS011;2196;47.422;9.656;2022-07-23T06:25:06;5.43;;;5.23;;
4365;SDS011;2196;47.422;9.656;2022-07-23T06:27:34;5.30;;;5.10;;
4365;SDS011;2196;47.422;9.656;2022-07-23T06:30:01;6.47;;;6.07;;
4365;SDS011;2196;47.422;9.656;2022-07-23T06:32:30;6.00;;;5.60;;
4365;SDS011;2196;47.422;9.656;2022-07-23T06:34:56;5.93;;;5.63;;
4365;SDS011;2196;47.422;9.656;2022-07-23T06:37:24;5.67;;;5.27;;
4365;SDS011;2196;47.422;9.656;2022-07-23T06:39:51;7.83;;;5.97;;
4365;SDS011;2196;47.422;9.656;2022-07-23T06:42:17;6.20;;;5.90;;
4365;SDS011;2196;47.422;9.656;2022-07-23T06:44:44;6.30;;;5.87;;
4365;SDS011;2196;47.422;9.656;2022-07-23T06:47:11;6.47;;;6.17;;
4365;SDS011;2196;47.422;9.656;2022-07-23T06:49:40;5.33;;;5.13;;
4365;SDS011;2196;47.422;9.656;2022-07-23T06:52:07;5.83;;;5.63;;
4365;SDS011;2196;47.422;9.656;2022-07-23T06:54:34;6.57;;;6.07;;
4365;SDS011;2196;47.422;9.656;2022-07-23T06:57:01;6.57;;;6.17;;
4365;SDS011;2196;47.422;9.656;2022-07-23T06:59:28;6.73;;;6.03;;
4365;SDS011;2196;47.422;9.656;2022-07-23T07:01:55;5.87;;;5.63;;
4365;SDS011;2196;47.422;9.656;2022-07-23T07:04:22;5.77;;;5.57;;
4365;SDS011;2196;47.422;9.656;2022-07-23T07:06:51;5.27;;;5.07;;
4365;SDS011;2196;47.422;9.656;2022-07-23T07:09:17;5.50;;;5.13;;
4365;SDS011;2196;47.422;9.656;2022-07-23T07:11:44;8.03;;;7.43;;
4365;SDS011;2196;47.422;9.656;2022-07-23T07:14:11;6.10;;;5.80;;
4365;SDS011;2196;47.422;9.656;2022-07-23T07:16:38;7.53;;;7.10;;
4365;SDS011;2196;47.422;9.656;2022-07-23T07:19:05;7.17;;;6.77;;
4365;SDS011;2196;47.422;9.656;2022-07-23T07:21:32;7.73;;;7.13;;
4365;SDS011;2196;47.422;9.656;2022-07-23T07:24:01;7.20;;;6.70;;
4365;SDS011;2196;47.422;9.656;2022-07-23T07:26:29;6.83;;;6.33;;
4365;SDS011;2196;47.422;9.656;2022-07-23T07:28:57;6.30;;;5.90;;
4365;SDS011;2196;47.422;9.656;2022-07-23T07:31:24;7.47;;;6.97;;
4365;SDS011;2196;47.422;9.656;2022-07-23T07:33:51;7.33;;;6.83;;
4365;SDS011;2196;47.422;9.656;2022-07-23T07:36:18;6.23;;;5.93;;
4365;SDS011;2196;47.422;9.656;2022-07-23T07:38:45;7.43;;;6.73;;
4365;SDS011;2196;47.422;9.656;2022-07-23T07:41:13;8.20;;;7.60;;
4365;SDS011;2196;47.422;9.656;2022-07-23T07:43:41;8.10;;;7.50;;
4365;SDS011;2196;47.422;9.656;2022-07-23T07:46:08;7.80;;;7.20;;
4365;SDS011;2196;47.422;9.656;2022-07-23T07:48:36;6.80;;;6.43;;
4365;SDS011;2196;47.422;9.656;2022-07-23T07:51:03;7.40;;;6.90;;
4365;SDS011;2196;47.422;9.656;2022-07-23T07:53:30;6.83;;;6.47;;
4365;SDS011;2196;47.422;9.656;2022-07-23T07:55:57;7.07;;;6.67;;
4365;SDS011;2196;47.422;9.656;2022-07-23T07:58:26;7.13;;;6.63;;
4365;SDS011;2196;47.422;9.656;2022-07-23T08:00:53;6.83;;;6.30;;
4365;SDS011;2196;47.422;9.656;2022-07-23T08:03:22;7.63;;;7.10;;
4365;SDS011;2196;47.422;9.656;2022-07-23T08:05:49;7.17;;;6.67;;
4365;SDS011;2196;47.422;9.656;2022-07-23T08:08:16;7.67;;;6.97;;
4365;SDS011;2196;47.422;9.656;2022-07-23T08:10:43;7.70;;;7.13;;
4365;SDS011;2196;47.422;9.656;2022-07-23T08:13:12;7.83;;;7.30;;
4365;SDS011;2196;47.422;9.656;2022-07-23T08:15:42;8.13;;;7.40;;
4365;SDS011;2196;47.422;9.656;2022-07-23T08:18:09;6.67;;;6.27;;
4365;SDS011;2196;47.422;9.656;2022-07-23T08:20:36;7.20;;;6.63;;
4365;SDS011;2196;47.422;9.656;2022-07-23T08:23:04;7.27;;;6.77;;
4365;SDS011;2196;47.422;9.656;2022-07-23T08:25:33;6.73;;;6.30;;
4365;SDS011;2196;47.422;9.656;2022-07-23T08:28:03;6.30;;;5.80;;
4365;SDS011;2196;47.422;9.656;2022-07-23T08:30:31;7.87;;;7.07;;
4365;SDS011;2196;47.422;9.656;2022-07-23T08:33:01;6.27;;;5.77;;
4365;SDS011;2196;47.422;9.656;2022-07-23T08:35:30;7.23;;;6.83;;
4365;SDS011;2196;47.422;9.656;2022-07-23T08:37:58;6.40;;;5.90;;
4365;SDS011;2196;47.422;9.656;2022-07-23T08:40:27;8.70;;;8.03;;
4365;SDS011;2196;47.422;9.656;2022-07-23T08:42:55;7.67;;;7.17;;
4365;SDS011;2196;47.422;9.656;2022-07-23T08:45:22;7.03;;;6.63;;
4365;SDS011;2196;47.422;9.656;2022-07-23T08:47:51;6.40;;;6.10;;
4365;SDS011;2196;47.422;9.656;2022-07-23T08:50:21;7.47;;;6.97;;
4365;SDS011;2196;47.422;9.656;2022-07-23T08:52:48;7.97;;;7.27;;
4365;SDS011;2196;47.422;9.656;2022-07-23T08:55:17;7.77;;;7.27;;
4365;SDS011;2196;47.422;9.656;2022-07-23T08:57:45;7.07;;;6.67;;
4365;SDS011;2196;47.422;9.656;2022-07-23T09:00:15;9.23;;;8.63;;
4365;SDS011;2196;47.422;9.656;2022-07-23T09:02:43;9.50;;;8.80;;
4365;SDS011;2196;47.422;9.656;2022-07-23T09:05:12;8.10;;;7.60;;
4365;SDS011;2196;47.422;9.656;2022-07-23T09:10:46;7.40;;;6.90;;
4365;SDS011;2196;47.422;9.656;2022-07-23T09:13:26;6.03;;;5.73;;
4365;SDS011;2196;47.422;9.656;2022-07-23T09:15:56;8.07;;;7.50;;
4365;SDS011;2196;47.422;9.656;2022-07-23T09:18:28;6.90;;;6.60;;
4365;SDS011;2196;47.422;9.656;2022-07-23T09:21:05;7.00;;;6.60;;
4365;SDS011;2196;47.422;9.656;2022-07-23T09:23:41;7.20;;;6.70;;
4365;SDS011;2196;47.422;9.656;2022-07-23T09:26:25;6.70;;;6.40;;
4365;SDS011;2196;47.422;9.656;2022-07-23T09:28:57;6.73;;;6.33;;
4365;SDS011;2196;47.422;9.656;2022-07-23T09:31:30;8.43;;;7.60;;
4365;SDS011;2196;47.422;9.656;2022-07-23T09:34:06;7.20;;;6.80;;
4365;SDS011;2196;47.422;9.656;2022-07-23T09:36:39;7.97;;;7.40;;
4365;SDS011;2196;47.422;9.656;2022-07-23T09:39:07;9.87;;;8.90;;
4365;SDS011;2196;47.422;9.656;2022-07-23T09:41:36;13.10;;;9.80;;
4365;SDS011;2196;47.422;9.656;2022-07-23T09:44:08;9.43;;;8.73;;
4365;SDS011;2196;47.422;9.656;2022-07-23T09:46:41;10.97;;;10.13;;
4365;SDS011;2196;47.422;9.656;2022-07-23T09:49:10;10.20;;;9.30;;
4365;SDS011;2196;47.422;9.656;2022-07-23T09:51:45;11.00;;;10.23;;
4365;SDS011;2196;47.422;9.656;2022-07-23T09:54:21;10.93;;;10.07;;
4365;SDS011;2196;47.422;9.656;2022-07-23T09:56:54;10.43;;;9.73;;
4365;SDS011;2196;47.422;9.656;2022-07-23T09:59:23;11.13;;;10.23;;
4365;SDS011;2196;47.422;9.656;2022-07-23T10:01:52;10.93;;;10.13;;
4365;SDS011;2196;47.422;9.656;2022-07-23T10:04:20;10.83;;;10.07;;
4365;SDS011;2196;47.422;9.656;2022-07-23T10:06:48;10.47;;;9.50;;
4365;SDS011;2196;47.422;9.656;2022-07-23T10:09:18;8.97;;;8.30;;
4365;SDS011;2196;47.422;9.656;2022-07-23T10:11:55;8.43;;;7.80;;
4365;SDS011;2196;47.422;9.656;2022-07-23T10:14:37;8.70;;;8.10;;
4365;SDS011;2196;47.422;9.656;2022-07-23T10:17:06;9.87;;;9.20;;
4365;SDS011;2196;47.422;9.656;2022-07-23T10:19:34;9.37;;;8.70;;
4365;SDS011;2196;47.422;9.656;2022-07-23T10:22:03;9.43;;;8.60;;
4365;SDS011;2196;47.422;9.656;2022-07-23T10:24:55;8.57;;;8.07;;
4365;SDS011;2196;47.422;9.656;2022-07-23T10:27:33;10.57;;;9.83;;
4365;SDS011;2196;47.422;9.656;2022-07-23T10:30:11;8.47;;;7.67;;
4365;SDS011;2196;47.422;9.656;2022-07-23T10:32:44;8.10;;;7.57;;
4365;SDS011;2196;47.422;9.656;2022-07-23T10:35:19;8.73;;;8.10;;
4365;SDS011;2196;47.422;9.656;2022-07-23T10:37:54;8.30;;;7.73;;
4365;SDS011;2196;47.422;9.656;2022-07-23T10:40:28;8.37;;;7.87;;
4365;SDS011;2196;47.422;9.656;2022-07-23T10:42:58;7.50;;;7.00;;
4365;SDS011;2196;47.422;9.656;2022-07-23T10:45:28;8.60;;;8.00;;
4365;SDS011;2196;47.422;9.656;2022-07-23T10:48:11;8.40;;;7.90;;
4365;SDS011;2196;47.422;9.656;2022-07-23T10:50:40;8.63;;;8.13;;
4365;SDS011;2196;47.422;9.656;2022-07-23T10:53:09;7.97;;;7.47;;
4365;SDS011;2196;47.422;9.656;2022-07-23T10:55:40;8.20;;;7.70;;
4365;SDS011;2196;47.422;9.656;2022-07-23T10:58:10;8.07;;;7.57;;
4365;SDS011;2196;47.422;9.656;2022-07-23T11:00:43;8.40;;;7.77;;
4365;SDS011;2196;47.422;9.656;2022-07-23T11:05:57;8.23;;;7.73;;
4365;SDS011;2196;47.422;9.656;2022-07-23T11:08:25;8.93;;;7.73;;
4365;SDS011;2196;47.422;9.656;2022-07-23T11:10:54;7.57;;;7.17;;
4365;SDS011;2196;47.422;9.656;2022-07-23T11:13:46;7.50;;;6.87;;
4365;SDS011;2196;47.422;9.656;2022-07-23T11:16:23;6.70;;;6.40;;
4365;SDS011;2196;47.422;9.656;2022-07-23T11:18:52;7.20;;;6.80;;
4365;SDS011;2196;47.422;9.656;2022-07-23T11:21:40;7.57;;;7.17;;
4365;SDS011;2196;47.422;9.656;2022-07-23T11:24:25;7.40;;;6.83;;
4365;SDS011;2196;47.422;9.656;2022-07-23T11:26:58;7.20;;;6.60;;
4365;SDS011;2196;47.422;9.656;2022-07-23T11:29:39;7.50;;;7.00;;
4365;SDS011;2196;47.422;9.656;2022-07-23T11:35:27;6.83;;;6.43;;
4365;SDS011;2196;47.422;9.656;2022-07-23T11:38:05;6.60;;;6.23;;
4365;SDS011;2196;47.422;9.656;2022-07-23T11:40:33;6.50;;;6.10;;
4365;SDS011;2196;47.422;9.656;2022-07-23T11:43:03;6.30;;;5.93;;
4365;SDS011;2196;47.422;9.656;2022-07-23T11:45:33;6.17;;;5.87;;
4365;SDS011;2196;47.422;9.656;2022-07-23T11:48:01;6.63;;;6.23;;
4365;SDS011;2196;47.422;9.656;2022-07-23T11:50:30;6.87;;;6.47;;
4365;SDS011;2196;47.422;9.656;2022-07-23T11:52:57;7.27;;;6.90;;
4365;SDS011;2196;47.422;9.656;2022-07-23T11:55:24;6.43;;;6.07;;
4365;SDS011;2196;47.422;9.656;2022-07-23T11:57:53;7.00;;;6.40;;
4365;SDS011;2196;47.422;9.656;2022-07-23T12:00:23;7.73;;;7.23;;
4365;SDS011;2196;47.422;9.656;2022-07-23T12:02:53;7.00;;;6.63;;
4365;SDS011;2196;47.422;9.656;2022-07-23T12:05:24;7.87;;;7.37;;
4365;SDS011;2196;47.422;9.656;2022-07-23T12:07:53;8.20;;;7.70;;
4365;SDS011;2196;47.422;9.656;2022-07-23T12:10:22;7.47;;;7.07;;
4365;SDS011;2196;47.422;9.656;2022-07-23T12:12:51;8.37;;;7.87;;
4365;SDS011;2196;47.422;9.656;2022-07-23T12:15:20;8.00;;;7.50;;
4365;SDS011;2196;47.422;9.656;2022-07-23T12:17:51;7.97;;;7.57;;
4365;SDS011;2196;47.422;9.656;2022-07-23T12:20:20;7.87;;;7.37;;
4365;SDS011;2196;47.422;9.656;2022-07-23T12:22:49;7.43;;;6.90;;
4365;SDS011;2196;47.422;9.656;2022-07-23T12:25:18;7.50;;;7.10;;
4365;SDS011;2196;47.422;9.656;2022-07-23T12:27:57;7.93;;;7.33;;
4365;SDS011;2196;47.422;9.656;2022-07-23T12:30:28;7.67;;;7.27;;
4365;SDS011;2196;47.422;9.656;2022-07-23T12:32:58;8.20;;;7.37;;
4365;SDS011;2196;47.422;9.656;2022-07-23T12:35:30;7.10;;;6.50;;
4365;SDS011;2196;47.422;9.656;2022-07-23T12:38:00;7.70;;;7.00;;
4365;SDS011;2196;47.422;9.656;2022-07-23T12:40:29;8.23;;;7.63;;
4365;SDS011;2196;47.422;9.656;2022-07-23T12:42:58;7.80;;;7.17;;
4365;SDS011;2196;47.422;9.656;2022-07-23T12:45:42;7.53;;;7.10;;
4365;SDS011;2196;47.422;9.656;2022-07-23T12:48:19;6.97;;;6.63;;
4365;SDS011;2196;47.422;9.656;2022-07-23T12:50:48;8.17;;;7.77;;
4365;SDS011;2196;47.422;9.656;2022-07-23T12:53:21;7.93;;;7.23;;
4365;SDS011;2196;47.422;9.656;2022-07-23T12:55:58;8.00;;;7.40;;
4365;SDS011;2196;47.422;9.656;2022-07-23T12:58:27;7.95;;;7.45;;
4365;SDS011;2196;47.422;9.656;2022-07-23T13:01:08;7.63;;;7.03;;
4365;SDS011;2196;47.422;9.656;2022-07-23T13:03:36;8.52;;;8.02;;
4365;SDS011;2196;47.422;9.656;2022-07-23T13:06:06;7.43;;;6.93;;
4365;SDS011;2196;47.422;9.656;2022-07-23T13:08:36;8.30;;;7.73;;
4365;SDS011;2196;47.422;9.656;2022-07-23T13:11:05;8.37;;;7.77;;
4365;SDS011;2196;47.422;9.656;2022-07-23T13:13:33;8.07;;;7.53;;
4365;SDS011;2196;47.422;9.656;2022-07-23T13:16:01;8.10;;;7.60;;
4365;SDS011;2196;47.422;9.656;2022-07-23T13:18:30;8.27;;;7.77;;
4365;SDS011;2196;47.422;9.656;2022-07-23T13:20:57;7.90;;;7.40;;
4365;SDS011;2196;47.422;9.656;2022-07-23T13:23:24;7.87;;;7.30;;
4365;SDS011;2196;47.422;9.656;2022-07-23T13:25:55;7.80;;;7.33;;
4365;SDS011;2196;47.422;9.656;2022-07-23T13:28:23;8.53;;;8.00;;
4365;SDS011;2196;47.422;9.656;2022-07-23T13:30:50;8.07;;;7.53;;
4365;SDS011;2196;47.422;9.656;2022-07-23T13:33:18;7.60;;;7.17;;
4365;SDS011;2196;47.422;9.656;2022-07-23T13:35:48;9.10;;;8.50;;
4365;SDS011;2196;47.422;9.656;2022-07-23T13:38:16;7.57;;;7.18;;
4365;SDS011;2196;47.422;9.656;2022-07-23T13:40:45;8.52;;;8.02;;
4365;SDS011;2196;47.422;9.656;2022-07-23T13:43:14;8.20;;;7.65;;
4365;SDS011;2196;47.422;9.656;2022-07-23T13:45:42;8.73;;;8.18;;
4365;SDS011;2196;47.422;9.656;2022-07-23T13:48:11;7.80;;;7.13;;
4365;SDS011;2196;47.422;9.656;2022-07-23T13:50:39;7.75;;;7.35;;
4365;SDS011;2196;47.422;9.656;2022-07-23T13:53:09;8.55;;;8.02;;
4365;SDS011;2196;47.422;9.656;2022-07-23T13:55:37;8.30;;;7.78;;
4365;SDS011;2196;47.422;9.656;2022-07-23T13:58:05;8.80;;;8.25;;
4365;SDS011;2196;47.422;9.656;2022-07-23T14:00:34;9.00;;;8.40;;
4365;SDS011;2196;47.422;9.656;2022-07-23T14:03:02;10.52;;;9.75;;
4365;SDS011;2196;47.422;9.656;2022-07-23T14:05:30;12.55;;;11.45;;
4365;SDS011;2196;47.422;9.656;2022-07-23T14:07:57;9.57;;;8.97;;
4365;SDS011;2196;47.422;9.656;2022-07-23T14:10:26;11.17;;;10.17;;
4365;SDS011;2196;47.422;9.656;2022-07-23T14:12:53;13.43;;;11.30;;
4365;SDS011;2196;47.422;9.656;2022-07-23T14:15:21;9.73;;;9.02;;
4365;SDS011;2196;47.422;9.656;2022-07-23T14:17:49;10.25;;;9.65;;
4365;SDS011;2196;47.422;9.656;2022-07-23T14:20:16;10.37;;;9.60;;
4365;SDS011;2196;47.422;9.656;2022-07-23T14:22:43;9.90;;;9.13;;
4365;SDS011;2196;47.422;9.656;2022-07-23T14:25:10;10.05;;;9.40;;
4365;SDS011;2196;47.422;9.656;2022-07-23T14:27:39;11.47;;;10.27;;
4365;SDS011;2196;47.422;9.656;2022-07-23T14:30:07;9.52;;;8.85;;
4365;SDS011;2196;47.422;9.656;2022-07-23T14:32:35;10.13;;;9.43;;
4365;SDS011;2196;47.422;9.656;2022-07-23T14:35:02;9.23;;;8.63;;
4365;SDS011;2196;47.422;9.656;2022-07-23T14:37:31;13.73;;;9.97;;
4365;SDS011;2196;47.422;9.656;2022-07-23T14:39:58;10.83;;;9.90;;
4365;SDS011;2196;47.422;9.656;2022-07-23T14:42:25;11.18;;;10.35;;
4365;SDS011;2196;47.422;9.656;2022-07-23T14:44:54;12.32;;;11.35;;
4365;SDS011;2196;47.422;9.656;2022-07-23T14:47:21;10.20;;;9.40;;
4365;SDS011;2196;47.422;9.656;2022-07-23T14:49:48;10.13;;;9.52;;
4365;SDS011;2196;47.422;9.656;2022-07-23T14:52:15;11.00;;;10.23;;
4365;SDS011;2196;47.422;9.656;2022-07-23T14:54:42;11.60;;;10.80;;
4365;SDS011;2196;47.422;9.656;2022-07-23T14:57:09;10.70;;;10.10;;
4365;SDS011;2196;47.422;9.656;2022-07-23T14:59:36;9.40;;;8.73;;
4365;SDS011;2196;47.422;9.656;2022-07-23T15:02:04;9.67;;;9.07;;
4365;SDS011;2196;47.422;9.656;2022-07-23T15:04:31;9.70;;;9.13;;
4365;SDS011;2196;47.422;9.656;2022-07-23T15:06:58;9.02;;;8.43;;
4365;SDS011;2196;47.422;9.656;2022-07-23T15:09:25;9.50;;;8.90;;
4365;SDS011;2196;47.422;9.656;2022-07-23T15:11:52;9.63;;;8.93;;
4365;SDS011;2196;47.422;9.656;2022-07-23T15:14:19;10.13;;;9.38;;
4365;SDS011;2196;47.422;9.656;2022-07-23T15:16:46;9.73;;;9.13;;
4365;SDS011;2196;47.422;9.656;2022-07-23T15:19:15;11.18;;;10.20;;
4365;SDS011;2196;47.422;9.656;2022-07-23T15:21:42;10.15;;;9.45;;
4365;SDS011;2196;47.422;9.656;2022-07-23T15:24:09;12.23;;;11.00;;
4365;SDS011;2196;47.422;9.656;2022-07-23T15:26:36;12.35;;;11.48;;